Time;durP1;ratioP1;P1;durP2;ratioP2;P2;SDS_P1;SDS_P2;PMS_P1;PMS_P2;Temp;Humidity;BMP_temperature;BMP_pressure;BME280_temperature;BME280_humidity;BME280_pressure;Samples;Min_cycle;Max_cycle;Signal;HPM_P1;HPM_P2
2022/06/13 00:00:49;;;;;;;23.98;8.73;;;;;;;;;;5013252;28;20045;-66
2022/06/13 00:03:15;;;;;;;22.10;9.32;;;;;;;;;;5013275;28;20046;-66
2022/06/13 00:05:41;;;;;;;23.27;8.48;;;;;;;;;;5014040;28;20124;-66
2022/06/13 00:08:07;;;;;;;23.00;8.80;;;;;;;;;;5013638;28;20053;-66
2022/06/13 00:10:34;;;;;;;28.70;8.65;;;;;;;;;;5013079;28;20081;-66
2022/06/13 00:12:59;;;;;;;;;;;;;;;;;;5014398;28;20085;-66
2022/06/13 00:15:26;;;;;;;21.98;8.68;;;;;;;;;;5012157;28;20407;-66
2022/06/13 00:17:52;;;;;;;23.10;8.90;;;;;;;;;;5013698;28;20053;-66
2022/06/13 00:20:18;;;;;;;23.88;7.90;;;;;;;;;;5014050;28;20049;-66
2022/06/13 00:22:44;;;;;;;25.27;9.18;;;;;;;;;;5013403;28;20049;-66
2022/06/13 00:25:10;;;;;;;22.65;7.88;;;;;;;;;;5013216;28;20042;-66
2022/06/13 00:27:36;;;;;;;25.38;9.30;;;;;;;;;;5013920;28;20046;-66
2022/06/13 00:30:03;;;;;;;22.67;9.23;;;;;;;;;;5017191;28;20426;-66
2022/06/13 00:32:29;;;;;;;22.80;8.98;;;;;;;;;;5016672;28;20046;-66
2022/06/13 00:34:55;;;;;;;28.83;9.52;;;;;;;;;;5016556;28;20072;-66
2022/06/13 00:37:21;;;;;;;20.15;8.07;;;;;;;;;;5016894;28;20057;-67
2022/06/13 00:39:48;;;;;;;26.30;8.98;;;;;;;;;;5016571;28;20049;-67
2022/06/13 00:42:19;;;;;;;24.00;9.18;;;;;;;;;;5016459;28;20050;-67
2022/06/13 00:45:04;;;;;;;24.52;7.97;;;;;;;;;;5015773;28;20128;-67
2022/06/13 00:47:30;;;;;;;22.60;8.82;;;;;;;;;;5016398;28;20045;-67
2022/06/13 00:49:56;;;;;;;;;;;;;;;;;;5016369;28;20058;-67
2022/06/13 00:52:28;;;;;;;22.20;8.27;;;;;;;;;;5016254;28;20004;-67
2022/06/13 00:54:55;;;;;;;28.83;8.77;;;;;;;;;;5016616;28;20084;-67
2022/06/13 00:57:24;;;;;;;22.42;8.55;;;;;;;;;;5016676;28;20082;-67
2022/06/13 00:59:52;;;;;;;26.88;8.65;;;;;;;;;;5016171;28;20045;-67
2022/06/13 01:02:18;;;;;;;24.38;9.38;;;;;;;;;;5015717;28;20398;-67
2022/06/13 01:04:45;;;;;;;24.35;9.02;;;;;;;;;;5016584;28;20048;-67
2022/06/13 01:07:11;;;;;;;26.50;9.40;;;;;;;;;;5016458;28;20053;-67
2022/06/13 01:12:24;;;;;;;23.17;9.25;;;;;;;;;;5015998;28;20060;-67
2022/06/13 01:15:09;;;;;;;23.75;9.63;;;;;;;;;;5015744;28;20042;-66
2022/06/13 01:17:41;;;;;;;22.95;9.10;;;;;;;;;;5015863;28;20112;-67
2022/06/13 01:20:29;;;;;;;24.50;9.27;;;;;;;;;;5015802;28;20052;-67
2022/06/13 01:23:15;;;;;;;26.33;9.68;;;;;;;;;;5015628;28;20050;-67
2022/06/13 01:25:56;;;;;;;24.33;9.38;;;;;;;;;;5004764;28;20050;-67
2022/06/13 01:28:25;;;;;;;25.40;9.55;;;;;;;;;;5015665;28;20050;-67
2022/06/13 01:30:57;;;;;;;24.05;9.50;;;;;;;;;;5015657;28;20124;-67
2022/06/13 01:33:33;;;;;;;25.17;9.73;;;;;;;;;;5016310;28;20041;-67
2022/06/13 01:36:02;;;;;;;25.27;9.60;;;;;;;;;;5015568;28;20482;-67
2022/06/13 01:38:28;;;;;;;22.95;8.48;;;;;;;;;;5015421;28;20042;-67
2022/06/13 01:41:03;;;;;;;19.58;8.82;;;;;;;;;;5014360;28;20570;-66
2022/06/13 01:43:45;;;;;;;24.80;8.57;;;;;;;;;;5015896;28;20053;-67
2022/06/13 01:46:37;;;;;;;26.02;9.57;;;;;;;;;;5015966;28;20053;-67
2022/06/13 01:49:12;;;;;;;22.65;9.07;;;;;;;;;;5013955;28;20548;-67
2022/06/13 01:51:44;;;;;;;21.08;8.75;;;;;;;;;;5015496;28;20053;-67
2022/06/13 01:54:17;;;;;;;30.50;10.02;;;;;;;;;;5015237;28;20374;-67
2022/06/13 01:56:53;;;;;;;27.58;9.73;;;;;;;;;;5015771;28;20085;-66
2022/06/13 01:59:23;;;;;;;23.42;9.38;;;;;;;;;;5014993;28;20050;-67
2022/06/13 02:01:49;;;;;;;23.92;9.80;;;;;;;;;;5014678;28;20479;-68
2022/06/13 02:04:15;;;;;;;25.90;9.70;;;;;;;;;;5014508;28;20064;-68
2022/06/13 02:06:43;;;;;;;31.95;10.82;;;;;;;;;;5015141;28;20050;-68
2022/06/13 02:09:23;;;;;;;27.20;9.15;;;;;;;;;;5014802;28;20042;-68
2022/06/13 02:11:51;;;;;;;25.85;9.65;;;;;;;;;;5014948;28;20500;-68
2022/06/13 02:14:23;;;;;;;26.25;9.52;;;;;;;;;;5014635;28;20048;-67
2022/06/13 02:16:52;;;;;;;24.83;10.20;;;;;;;;;;5015303;28;20390;-67
2022/06/13 02:19:18;;;;;;;22.85;9.48;;;;;;;;;;5015091;28;20085;-67
2022/06/13 02:21:53;;;;;;;31.27;10.43;;;;;;;;;;5014802;28;20124;-67
2022/06/13 02:24:22;;;;;;;29.05;9.00;;;;;;;;;;5014663;28;20050;-67
2022/06/13 02:26:50;;;;;;;24.92;10.27;;;;;;;;;;5015137;28;20433;-67
2022/06/13 02:29:21;;;;;;;20.17;9.02;;;;;;;;;;5014347;28;20492;-68
2022/06/13 02:31:50;;;;;;;29.02;9.88;;;;;;;;;;5014508;28;20133;-68
2022/06/13 02:34:22;;;;;;;26.80;9.73;;;;;;;;;;5014219;28;20038;-67
2022/06/13 02:37:01;;;;;;;26.23;9.35;;;;;;;;;;5014476;28;20057;-68
2022/06/13 02:39:39;;;;;;;27.70;10.68;;;;;;;;;;5015174;28;20050;-67
2022/06/13 02:42:08;;;;;;;28.65;9.77;;;;;;;;;;5014707;28;20049;-67
2022/06/13 02:44:37;;;;;;;21.65;9.70;;;;;;;;;;5013116;28;20044;-67
2022/06/13 02:47:09;;;;;;;23.10;9.43;;;;;;;;;;5014473;28;20132;-67
2022/06/13 02:49:45;;;;;;;26.33;9.85;;;;;;;;;;5013973;28;20089;-67
2022/06/13 02:52:37;;;;;;;29.48;10.52;;;;;;;;;;5012618;28;20084;-68
2022/06/13 02:55:06;;;;;;;24.33;9.63;;;;;;;;;;5013349;28;20053;-67
2022/06/13 02:57:38;;;;;;;22.88;10.00;;;;;;;;;;5014078;28;20124;-67
2022/06/13 03:00:04;;;;;;;24.73;9.43;;;;;;;;;;5013938;28;20052;-67
2022/06/13 03:02:39;;;;;;;25.88;11.27;;;;;;;;;;5014727;28;20046;-67
2022/06/13 03:05:24;;;;;;;29.58;11.07;;;;;;;;;;5014027;28;20042;-67
2022/06/13 03:07:57;;;;;;;29.08;10.50;;;;;;;;;;5013666;28;20045;-66
2022/06/13 03:10:27;;;;;;;25.80;10.43;;;;;;;;;;5013773;28;20133;-67
2022/06/13 03:13:02;;;;;;;28.05;10.93;;;;;;;;;;5013182;28;20493;-67
2022/06/13 03:15:46;;;;;;;27.08;9.93;;;;;;;;;;5013100;28;20040;-67
2022/06/13 03:18:15;;;;;;;28.33;10.13;;;;;;;;;;5013138;28;20129;-67
2022/06/13 03:21:01;;;;;;;23.85;10.10;;;;;;;;;;5012581;28;20050;-67
2022/06/13 03:23:36;;;;;;;23.83;9.85;;;;;;;;;;5012230;28;20593;-67
2022/06/13 03:26:15;;;;;;;23.17;9.65;;;;;;;;;;5012312;28;20049;-67
2022/06/13 03:28:41;;;;;;;24.98;9.27;;;;;;;;;;5011935;28;20049;-67
2022/06/13 03:31:16;;;;;;;23.92;8.70;;;;;;;;;;5012210;28;20046;-67
2022/06/13 03:33:44;;;;;;;21.38;8.85;;;;;;;;;;5011532;28;20544;-67
2022/06/13 03:36:15;;;;;;;19.75;8.13;;;;;;;;;;5011799;28;20571;-67
2022/06/13 03:38:45;;;;;;;18.98;8.30;;;;;;;;;;5011611;28;20046;-67
2022/06/13 03:41:14;;;;;;;23.83;8.57;;;;;;;;;;5011540;28;20054;-67
2022/06/13 03:43:44;;;;;;;21.20;7.80;;;;;;;;;;5011711;28;20049;-67
2022/06/13 03:46:12;;;;;;;18.73;7.38;;;;;;;;;;5011457;28;20045;-67
2022/06/13 03:49:00;;;;;;;18.55;6.93;;;;;;;;;;5011589;28;20053;-67
2022/06/13 03:51:28;;;;;;;17.88;7.20;;;;;;;;;;5011758;28;20053;-66
2022/06/13 03:53:54;;;;;;;18.05;7.10;;;;;;;;;;5010824;28;20097;-67
2022/06/13 03:56:20;;;;;;;20.50;7.38;;;;;;;;;;5011537;28;20053;-67
2022/06/13 03:58:50;;;;;;;17.83;7.45;;;;;;;;;;5011322;28;20386;-67
2022/06/13 04:01:18;;;;;;;25.45;7.38;;;;;;;;;;5011073;28;20138;-67
2022/06/13 04:03:44;;;;;;;20.83;7.63;;;;;;;;;;5013176;28;20050;-67
2022/06/13 04:06:29;;;;;;;19.48;6.93;;;;;;;;;;5015134;28;20184;-67
2022/06/13 04:08:55;;;;;;;19.70;7.07;;;;;;;;;;5015229;28;20062;-67
2022/06/13 04:11:44;;;;;;;24.08;7.68;;;;;;;;;;5015237;28;20111;-66
2022/06/13 04:14:22;;;;;;;19.50;6.93;;;;;;;;;;5015300;28;20049;-67
2022/06/13 04:16:58;;;;;;;23.98;7.63;;;;;;;;;;5015067;28;20054;-67
2022/06/13 04:19:31;;;;;;;24.73;6.88;;;;;;;;;;5014010;28;20058;-67
2022/06/13 04:22:21;;;;;;;17.33;6.55;;;;;;;;;;5015057;28;20061;-67
2022/06/13 04:24:56;;;;;;;24.42;7.43;;;;;;;;;;5014724;28;20490;-67
2022/06/13 04:27:28;;;;;;;17.25;6.35;;;;;;;;;;5013781;28;20137;-67
2022/06/13 04:30:00;;;;;;;19.15;6.65;;;;;;;;;;5014667;28;20104;-67
2022/06/13 04:32:34;;;;;;;22.75;6.85;;;;;;;;;;5014915;28;20049;-67
2022/06/13 04:35:00;;;;;;;19.17;6.30;;;;;;;;;;5014689;28;20046;-67
2022/06/13 04:37:26;;;;;;;20.85;6.22;;;;;;;;;;5014609;28;20054;-68
2022/06/13 04:39:58;;;;;;;20.50;6.53;;;;;;;;;;5014502;28;20482;-67
2022/06/13 04:42:25;;;;;;;19.38;5.65;;;;;;;;;;5014387;28;20050;-67
2022/06/13 04:44:52;;;;;;;22.67;6.63;;;;;;;;;;5014878;28;20133;-67
2022/06/13 04:47:18;;;;;;;18.90;5.60;;;;;;;;;;5013186;28;20049;-67
2022/06/13 04:49:55;;;;;;;20.08;5.88;;;;;;;;;;5014382;28;20123;-67
2022/06/13 04:52:24;;;;;;;19.08;5.65;;;;;;;;;;5014305;28;20097;-67
2022/06/13 04:54:50;;;;;;;21.38;5.75;;;;;;;;;;5013196;28;20099;-68
2022/06/13 04:57:20;;;;;;;21.02;5.80;;;;;;;;;;5013820;28;20521;-68
2022/06/13 04:59:46;;;;;;;;;;;;;;;;;;5013456;28;20053;-69
2022/06/13 05:02:18;;;;;;;15.27;4.65;;;;;;;;;;5014039;28;19921;-66
2022/06/13 05:04:44;;;;;;;14.95;4.90;;;;;;;;;;5014045;28;20470;-68
2022/06/13 05:07:10;;;;;;;;;;;;;;;;;;5015193;28;20053;-67
2022/06/13 05:09:37;;;;;;;14.32;4.15;;;;;;;;;;5013354;28;20309;-65
2022/06/13 05:12:10;;;;;;;15.25;4.65;;;;;;;;;;5014126;28;20108;-66
2022/06/13 05:14:49;;;;;;;13.27;3.90;;;;;;;;;;5014049;28;20073;-67
2022/06/13 05:17:24;;;;;;;14.73;3.90;;;;;;;;;;5012518;28;20046;-65
2022/06/13 05:19:53;;;;;;;12.27;3.38;;;;;;;;;;5014308;28;20046;-67
2022/06/13 05:22:37;;;;;;;11.98;3.50;;;;;;;;;;5013478;28;20057;-67
2022/06/13 05:25:22;;;;;;;12.35;3.05;;;;;;;;;;5013660;28;20482;-66
2022/06/13 05:27:48;;;;;;;11.25;3.00;;;;;;;;;;5014048;28;20441;-67
2022/06/13 05:30:15;;;;;;;10.82;2.58;;;;;;;;;;5012099;28;20077;-67
2022/06/13 05:32:42;;;;;;;10.80;2.70;;;;;;;;;;5013609;28;20053;-66
2022/06/13 05:35:12;;;;;;;11.50;3.03;;;;;;;;;;5013021;28;20042;-66
2022/06/13 05:37:38;;;;;;;9.57;2.60;;;;;;;;;;5013632;28;20513;-67
2022/06/13 05:40:05;;;;;;;7.85;2.50;;;;;;;;;;5013871;28;20053;-65
2022/06/13 05:42:31;;;;;;;;;;;;;;;;;;5013228;28;20050;-64
2022/06/13 05:44:57;;;;;;;8.85;2.45;;;;;;;;;;5013270;28;20292;-67
2022/06/13 05:47:23;;;;;;;9.75;2.50;;;;;;;;;;5013545;28;20069;-67
2022/06/13 05:49:49;;;;;;;7.88;2.50;;;;;;;;;;5013414;28;20058;-67
2022/06/13 05:52:15;;;;;;;7.18;2.30;;;;;;;;;;5012857;28;20046;-67
2022/06/13 05:54:41;;;;;;;8.23;2.53;;;;;;;;;;5013000;28;20574;-67
2022/06/13 05:57:07;;;;;;;8.43;2.42;;;;;;;;;;5012890;28;20056;-70
2022/06/13 05:59:33;;;;;;;7.75;2.60;;;;;;;;;;5012846;28;20084;-67
2022/06/13 06:01:59;;;;;;;10.73;2.60;;;;;;;;;;5012536;28;20050;-67
2022/06/13 06:04:25;;;;;;;12.13;2.97;;;;;;;;;;5013345;28;20042;-66
2022/06/13 06:06:52;;;;;;;10.80;2.60;;;;;;;;;;5012084;28;20432;-68
2022/06/13 06:09:18;;;;;;;7.90;2.50;;;;;;;;;;5013232;28;20052;-68
2022/06/13 06:11:44;;;;;;;13.80;2.65;;;;;;;;;;5012403;28;20061;-68
2022/06/13 06:14:10;;;;;;;8.82;2.30;;;;;;;;;;5013217;28;20115;-68
2022/06/13 06:16:36;;;;;;;10.27;2.70;;;;;;;;;;5012622;28;20042;-69
2022/06/13 06:19:02;;;;;;;8.07;2.40;;;;;;;;;;5013081;28;20331;-69
2022/06/13 06:21:28;;;;;;;12.77;2.90;;;;;;;;;;5012225;28;20128;-69
2022/06/13 06:23:54;;;;;;;11.38;2.85;;;;;;;;;;5012162;28;20034;-68
2022/06/13 06:26:22;;;;;;;12.32;2.65;;;;;;;;;;5010926;28;20054;-67
2022/06/13 06:28:48;;;;;;;12.77;2.90;;;;;;;;;;5012527;28;20046;-68
2022/06/13 06:31:15;;;;;;;13.15;3.17;;;;;;;;;;5012529;28;20050;-68
2022/06/13 06:33:41;;;;;;;11.80;2.80;;;;;;;;;;5012317;28;20057;-67
2022/06/13 06:36:07;;;;;;;;;;;;;;;;;;5012308;28;20196;-69
2022/06/13 06:38:33;;;;;;;10.93;2.90;;;;;;;;;;5012140;28;19983;-70
2022/06/13 06:41:00;;;;;;;12.48;3.30;;;;;;;;;;4994614;28;20057;-69
2022/06/13 06:43:26;;;;;;;11.93;2.80;;;;;;;;;;5011902;28;20553;-69
2022/06/13 06:45:52;;;;;;;12.73;2.72;;;;;;;;;;5012084;28;20049;-66
2022/06/13 06:48:19;;;;;;;10.30;2.60;;;;;;;;;;5012027;28;20129;-67
2022/06/13 06:50:49;;;;;;;11.73;2.78;;;;;;;;;;5012223;28;20061;-68
2022/06/13 06:53:16;;;;;;;12.95;3.00;;;;;;;;;;5011260;28;20475;-68
2022/06/13 07:00:55;;;;;;;12.00;3.47;;;;;;;;;;5011419;28;20057;-66
2022/06/13 07:03:22;;;;;;;13.98;2.83;;;;;;;;;;5011156;28;20054;-67
2022/06/13 07:05:50;;;;;;;13.48;3.30;;;;;;;;;;5011417;28;20038;-68
2022/06/13 07:08:16;;;;;;;14.23;3.75;;;;;;;;;;5012497;28;20049;-69
2022/06/13 07:10:46;;;;;;;10.88;3.03;;;;;;;;;;5011426;28;20053;-66
2022/06/13 07:13:12;;;;;;;11.40;2.83;;;;;;;;;;5011872;28;20050;-68
2022/06/13 07:15:39;;;;;;;13.35;3.33;;;;;;;;;;5011646;28;20050;-68
2022/06/13 07:18:06;;;;;;;14.93;3.10;;;;;;;;;;5011199;28;20054;-69
2022/06/13 07:20:32;;;;;;;15.32;3.55;;;;;;;;;;5011180;28;20046;-66
2022/06/13 07:22:58;;;;;;;10.30;3.40;;;;;;;;;;5010194;28;20616;-67
2022/06/13 07:25:29;;;;;;;9.70;2.75;;;;;;;;;;5011519;28;20446;-69
2022/06/13 07:27:55;;;;;;;20.95;3.58;;;;;;;;;;5011480;28;20367;-66
2022/06/13 07:30:23;;;;;;;16.55;2.90;;;;;;;;;;5012166;28;20050;-68
2022/06/13 07:32:50;;;;;;;14.40;3.33;;;;;;;;;;5012018;28;20064;-67
2022/06/13 07:35:18;;;;;;;15.80;3.13;;;;;;;;;;5011221;28;20137;-67
2022/06/13 07:40:33;;;;;;;15.95;2.70;;;;;;;;;;5014759;28;20381;-68
2022/06/13 07:43:00;;;;;;;17.83;3.25;;;;;;;;;;5015838;28;20104;-69
2022/06/13 07:45:27;;;;;;;12.68;3.00;;;;;;;;;;5015140;28;20125;-69
2022/06/13 07:47:54;;;;;;;13.25;3.15;;;;;;;;;;5015441;28;20450;-67
2022/06/13 07:50:21;;;;;;;15.90;3.38;;;;;;;;;;5012868;28;20064;-68
2022/06/13 07:52:47;;;;;;;12.45;2.80;;;;;;;;;;5015206;28;20112;-69
2022/06/13 07:55:14;;;;;;;15.10;3.20;;;;;;;;;;5015224;28;20048;-66
2022/06/13 07:57:40;;;;;;;;;;;;;;;;;;5014238;28;20050;-67
2022/06/13 08:00:07;;;;;;;9.25;2.35;;;;;;;;;;5012987;28;19952;-65
2022/06/13 08:02:34;;;;;;;7.00;2.05;;;;;;;;;;5013916;28;20342;-67
2022/06/13 08:05:00;;;;;;;10.75;2.20;;;;;;;;;;5013820;28;20378;-68
2022/06/13 08:07:26;;;;;;;9.40;2.10;;;;;;;;;;5013182;28;20355;-66
2022/06/13 08:09:53;;;;;;;8.70;2.03;;;;;;;;;;5012466;28;20104;-67
2022/06/13 08:12:19;;;;;;;14.13;2.78;;;;;;;;;;5013533;28;20084;-65
2022/06/13 08:14:47;;;;;;;15.23;2.10;;;;;;;;;;5013906;28;20350;-66
2022/06/13 08:17:18;;;;;;;12.23;2.55;;;;;;;;;;5013818;28;20053;-64
2022/06/13 08:19:45;;;;;;;7.70;2.00;;;;;;;;;;5013224;28;20054;-66
2022/06/13 08:22:11;;;;;;;;;;;;;;;;;;5012047;28;20485;-67
2022/06/13 08:24:37;;;;;;;14.43;2.75;;;;;;;;;;5010706;28;20385;-66
2022/06/13 08:27:03;;;;;;;10.93;2.22;;;;;;;;;;5012063;28;20110;-67
2022/06/13 08:29:29;;;;;;;;;;;;;;;;;;5012774;28;20046;-67
2022/06/13 08:31:55;;;;;;;9.65;2.10;;;;;;;;;;5010951;28;19991;-69
2022/06/13 08:34:21;;;;;;;14.60;2.45;;;;;;;;;;5013139;28;20088;-66
2022/06/13 08:36:47;;;;;;;10.38;2.40;;;;;;;;;;5012907;28;20151;-66
2022/06/13 08:39:13;;;;;;;;;;;;;;;;;;5013230;28;20137;-66
2022/06/13 08:41:50;;;;;;;14.32;2.30;;;;;;;;;;5012268;28;20357;-66
2022/06/13 08:44:35;;;;;;;9.07;2.08;;;;;;;;;;5013420;28;20054;-67
2022/06/13 08:47:04;;;;;;;11.95;2.70;;;;;;;;;;5013076;28;20058;-63
2022/06/13 08:50:03;;;;;;;13.40;2.38;;;;;;;;;;5012153;28;20046;-65
2022/06/13 08:52:45;;;;;;;9.63;2.30;;;;;;;;;;5001284;28;20075;-64
2022/06/13 08:55:23;;;;;;;11.77;2.83;;;;;;;;;;5012623;28;20048;-66
2022/06/13 08:57:56;;;;;;;8.27;2.10;;;;;;;;;;5011217;28;20474;-66
2022/06/13 09:00:24;;;;;;;13.75;2.55;;;;;;;;;;5011311;28;20049;-65
2022/06/13 09:02:53;;;;;;;10.43;2.28;;;;;;;;;;5011624;28;20160;-64
2022/06/13 09:05:33;;;;;;;15.45;2.78;;;;;;;;;;5011335;28;20363;-64
2022/06/13 09:08:07;;;;;;;11.88;2.42;;;;;;;;;;5011311;28;20111;-64
2022/06/13 09:10:53;;;;;;;14.10;2.63;;;;;;;;;;5010604;28;20050;-65
2022/06/13 09:13:26;;;;;;;12.00;3.03;;;;;;;;;;5010371;28;20534;-64
2022/06/13 09:15:59;;;;;;;11.68;2.45;;;;;;;;;;5010581;28;20061;-65
2022/06/13 09:18:48;;;;;;;15.30;2.42;;;;;;;;;;5011340;28;20065;-65
2022/06/13 09:21:27;;;;;;;13.02;2.60;;;;;;;;;;5009627;28;20052;-62
2022/06/13 09:24:24;;;;;;;14.75;2.78;;;;;;;;;;5010091;28;20050;-66
2022/06/13 09:26:50;;;;;;;;;;;;;;;;;;5006956;28;20050;-65
2022/06/13 09:29:36;;;;;;;14.75;2.33;;;;;;;;;;5011198;28;20052;-65
2022/06/13 09:32:15;;;;;;;11.05;2.40;;;;;;;;;;5010057;28;20169;-66
2022/06/13 09:34:45;;;;;;;14.48;2.92;;;;;;;;;;5012117;28;20057;-65
2022/06/13 09:37:11;;;;;;;13.85;2.90;;;;;;;;;;5010972;28;20053;-64
2022/06/13 09:39:38;;;;;;;12.13;2.92;;;;;;;;;;5008803;28;20485;-66
2022/06/13 09:42:16;;;;;;;14.60;2.67;;;;;;;;;;5009404;28;20104;-66
2022/06/13 09:45:00;;;;;;;12.30;2.42;;;;;;;;;;5010552;28;20343;-68
2022/06/13 09:47:33;;;;;;;11.48;2.60;;;;;;;;;;5010586;28;20046;-63
2022/06/13 09:49:59;;;;;;;10.35;2.55;;;;;;;;;;5010362;28;20156;-63
2022/06/13 09:52:30;;;;;;;15.23;2.90;;;;;;;;;;5010338;28;20057;-64
2022/06/13 09:55:15;;;;;;;12.70;3.00;;;;;;;;;;5009956;28;20497;-63
2022/06/13 09:58:01;;;;;;;9.18;2.38;;;;;;;;;;5009729;28;20058;-65
2022/06/13 10:00:39;;;;;;;11.73;2.70;;;;;;;;;;5009448;28;20081;-67
2022/06/13 10:03:20;;;;;;;14.07;2.65;;;;;;;;;;5009555;28;20072;-67
2022/06/13 10:05:48;;;;;;;13.13;2.78;;;;;;;;;;5009608;28;20046;-65
2022/06/13 10:08:14;;;;;;;13.27;2.53;;;;;;;;;;5010882;28;20132;-68
2022/06/13 10:10:46;;;;;;;14.48;2.83;;;;;;;;;;5009813;28;20053;-65
2022/06/13 10:13:19;;;;;;;15.15;2.38;;;;;;;;;;5010262;28;20141;-63
2022/06/13 10:16:03;;;;;;;12.65;3.08;;;;;;;;;;5010278;28;20511;-66
2022/06/13 10:18:52;;;;;;;19.58;2.60;;;;;;;;;;5010105;28;20072;-65
2022/06/13 10:21:18;;;;;;;12.50;2.45;;;;;;;;;;5008511;28;20053;-65
2022/06/13 10:23:44;;;;;;;18.65;3.13;;;;;;;;;;5009528;28;20339;-64
2022/06/13 10:26:29;;;;;;;13.75;2.55;;;;;;;;;;5009899;28;20049;-64
2022/06/13 10:29:07;;;;;;;14.70;2.80;;;;;;;;;;5010695;28;20092;-64
2022/06/13 10:31:36;;;;;;;15.38;3.13;;;;;;;;;;5009257;28;20045;-63
2022/06/13 10:34:15;;;;;;;19.00;3.30;;;;;;;;;;5009887;28;20127;-64
2022/06/13 10:36:56;;;;;;;10.60;2.55;;;;;;;;;;5010190;28;20054;-66
2022/06/13 10:39:27;;;;;;;15.02;3.03;;;;;;;;;;5009836;28;20057;-64
2022/06/13 10:41:55;;;;;;;14.75;2.90;;;;;;;;;;5009189;28;20132;-67
2022/06/13 10:44:21;;;;;;;13.55;2.85;;;;;;;;;;5009043;28;20548;-65
2022/06/13 10:46:51;;;;;;;18.10;3.13;;;;;;;;;;5010161;28;20157;-66
2022/06/13 10:49:24;;;;;;;14.45;3.20;;;;;;;;;;5008007;28;20560;-63
2022/06/13 10:51:51;;;;;;;17.88;2.80;;;;;;;;;;5010091;28;20060;-65
2022/06/13 10:54:20;;;;;;;15.95;2.95;;;;;;;;;;5008525;28;20057;-67
2022/06/13 10:56:50;;;;;;;15.00;3.38;;;;;;;;;;5008458;28;20057;-66
2022/06/13 10:59:24;;;;;;;21.35;3.20;;;;;;;;;;5008664;28;20100;-65
2022/06/13 11:01:56;;;;;;;16.88;3.60;;;;;;;;;;5008197;28;20096;-66
2022/06/13 11:04:22;;;;;;;14.88;3.05;;;;;;;;;;5006732;28;20053;-69
2022/06/13 11:06:48;;;;;;;;;;;;;;;;;;5009629;28;20120;-65
2022/06/13 11:09:33;;;;;;;13.88;3.10;;;;;;;;;;5008109;28;19980;-64
2022/06/13 11:12:01;;;;;;;19.23;3.75;;;;;;;;;;5008448;28;20489;-63
2022/06/13 11:22:37;;;;;;;18.73;3.42;;;;;;;;;;5007234;28;20045;-64
2022/06/13 11:23:03;;;;;;;13.07;2.60;;;;;;;;;;5008370;28;20049;-65
2022/06/13 11:25:33;;;;;;;12.13;2.45;;;;;;;;;;5008090;28;20110;-64
2022/06/13 11:28:01;;;;;;;11.40;2.65;;;;;;;;;;5006348;28;20049;-66
2022/06/13 11:30:27;;;;;;;11.80;2.42;;;;;;;;;;5005945;28;20430;-66
2022/06/13 11:33:06;;;;;;;13.75;2.65;;;;;;;;;;5008140;28;20114;-64
2022/06/13 11:35:32;;;;;;;14.90;2.80;;;;;;;;;;5007863;28;20049;-64
2022/06/13 11:37:58;;;;;;;;;;;;;;;;;;5009876;28;20081;-65
2022/06/13 11:40:26;;;;;;;14.27;3.00;;;;;;;;;;4990161;28;19929;-64
2022/06/13 11:42:53;;;;;;;18.13;3.08;;;;;;;;;;5008938;28;20084;-64
2022/06/13 11:45:22;;;;;;;17.38;2.80;;;;;;;;;;5009065;28;20505;-64
2022/06/13 11:47:50;;;;;;;18.90;2.65;;;;;;;;;;5008281;28;20061;-67
2022/06/13 11:50:19;;;;;;;16.23;3.40;;;;;;;;;;5008305;28;20199;-64
2022/06/13 11:55:31;;;;;;;14.70;3.30;;;;;;;;;;5008169;28;20450;-64
2022/06/13 11:58:02;;;;;;;14.75;3.00;;;;;;;;;;5008594;28;20064;-64
2022/06/13 12:00:28;;;;;;;13.48;2.80;;;;;;;;;;5007157;28;20473;-65
2022/06/13 12:02:56;;;;;;;18.38;3.63;;;;;;;;;;5008177;28;20061;-64
2022/06/13 12:05:22;;;;;;;14.73;2.88;;;;;;;;;;5009747;28;20042;-66
2022/06/13 12:08:12;;;;;;;12.25;2.67;;;;;;;;;;5007981;28;20057;-64
2022/06/13 12:10:42;;;;;;;12.65;2.40;;;;;;;;;;5006229;28;20069;-63
2022/06/13 12:13:15;;;;;;;12.63;2.63;;;;;;;;;;5008875;28;20092;-65
2022/06/13 12:15:44;;;;;;;13.23;3.00;;;;;;;;;;5007309;28;20072;-65
2022/06/13 12:18:19;;;;;;;14.80;2.38;;;;;;;;;;5008713;28;20123;-66
2022/06/13 12:20:46;;;;;;;13.45;2.70;;;;;;;;;;5007983;28;20052;-64
2022/06/13 12:23:14;;;;;;;15.00;3.00;;;;;;;;;;5007963;28;20105;-63
2022/06/13 12:25:49;;;;;;;16.88;3.20;;;;;;;;;;5011146;28;20400;-64
2022/06/13 12:28:17;;;;;;;14.52;2.92;;;;;;;;;;5011420;28;20052;-65
2022/06/13 12:30:47;;;;;;;12.23;2.67;;;;;;;;;;5011592;28;20104;-63
2022/06/13 12:33:16;;;;;;;13.15;2.70;;;;;;;;;;5010702;28;20382;-64
2022/06/13 12:35:53;;;;;;;15.25;3.75;;;;;;;;;;5011036;28;20104;-65
2022/06/13 12:38:22;;;;;;;20.90;3.50;;;;;;;;;;5011692;28;20212;-63
2022/06/13 12:41:07;;;;;;;13.75;2.88;;;;;;;;;;5009099;28;20316;-64
2022/06/13 12:43:38;;;;;;;14.02;2.10;;;;;;;;;;5011048;28;20168;-65
2022/06/13 12:46:11;;;;;;;11.88;2.45;;;;;;;;;;5011287;28;20441;-64
2022/06/13 12:48:43;;;;;;;15.23;2.42;;;;;;;;;;5011037;28;20057;-63
2022/06/13 12:51:20;;;;;;;14.95;2.80;;;;;;;;;;5008491;28;20211;-64
2022/06/13 12:54:07;;;;;;;13.55;2.42;;;;;;;;;;5010856;28;20161;-63
2022/06/13 12:56:36;;;;;;;10.48;2.42;;;;;;;;;;5010225;28;20517;-64
2022/06/13 12:59:25;;;;;;;11.57;2.38;;;;;;;;;;5012512;28;20089;-67
2022/06/13 13:02:09;;;;;;;11.23;2.35;;;;;;;;;;5012725;28;20061;-66
2022/06/13 13:04:45;;;;;;;13.23;2.88;;;;;;;;;;5011418;28;20068;-67
2022/06/13 13:07:14;;;;;;;8.48;2.03;;;;;;;;;;5010177;28;20058;-65
2022/06/13 13:09:46;;;;;;;10.63;2.05;;;;;;;;;;5011025;28;20129;-65
2022/06/13 13:12:18;;;;;;;11.13;2.25;;;;;;;;;;5010458;28;20045;-66
2022/06/13 13:14:47;;;;;;;11.45;2.58;;;;;;;;;;5008831;28;20520;-67
2022/06/13 13:17:19;;;;;;;12.05;2.30;;;;;;;;;;5010500;28;20045;-65
2022/06/13 13:19:45;;;;;;;9.10;2.00;;;;;;;;;;5009975;28;20077;-65
2022/06/13 13:22:12;;;;;;;17.42;2.10;;;;;;;;;;5009763;28;20053;-66
2022/06/13 13:25:01;;;;;;;11.20;2.40;;;;;;;;;;5010303;28;20050;-64
2022/06/13 13:27:29;;;;;;;9.18;1.92;;;;;;;;;;5006378;28;20068;-65
2022/06/13 13:30:17;;;;;;;8.90;1.90;;;;;;;;;;5009688;28;20088;-65
2022/06/13 13:32:59;;;;;;;13.88;2.42;;;;;;;;;;5009397;28;20056;-67
2022/06/13 13:35:37;;;;;;;6.30;1.77;;;;;;;;;;5009969;28;20109;-65
2022/06/13 13:38:15;;;;;;;8.05;2.05;;;;;;;;;;5008951;28;20469;-66
2022/06/13 13:40:43;;;;;;;15.07;2.65;;;;;;;;;;5009925;28;20115;-66
2022/06/13 13:43:21;;;;;;;9.57;2.22;;;;;;;;;;5009827;28;20053;-67
2022/06/13 13:46:00;;;;;;;8.98;2.17;;;;;;;;;;5010077;28;20111;-67
2022/06/13 13:48:31;;;;;;;8.32;2.10;;;;;;;;;;5011783;28;20046;-67
2022/06/13 13:51:22;;;;;;;8.45;2.38;;;;;;;;;;5008683;28;20351;-69
2022/06/13 13:53:56;;;;;;;10.13;2.42;;;;;;;;;;5009883;28;20136;-68
2022/06/13 13:56:25;;;;;;;11.20;2.38;;;;;;;;;;5007724;28;20128;-68
2022/06/13 13:58:52;;;;;;;13.05;2.15;;;;;;;;;;5011290;28;20050;-66
2022/06/13 14:01:18;;;;;;;8.35;2.45;;;;;;;;;;5010818;28;20054;-66
2022/06/13 14:03:44;;;;;;;12.05;2.58;;;;;;;;;;5010182;28;20049;-66
2022/06/13 14:06:16;;;;;;;7.22;1.92;;;;;;;;;;5009503;28;20056;-65
2022/06/13 14:08:43;;;;;;;7.30;1.77;;;;;;;;;;5010088;28;20061;-66
2022/06/13 14:11:10;;;;;;;11.23;2.50;;;;;;;;;;5009292;28;20473;-66
2022/06/13 14:13:37;;;;;;;5.93;2.10;;;;;;;;;;5009432;28;20050;-66
2022/06/13 14:16:15;;;;;;;9.45;2.53;;;;;;;;;;5009209;28;20117;-67
2022/06/13 14:18:45;;;;;;;10.40;2.42;;;;;;;;;;5007878;28;20055;-66
2022/06/13 14:21:34;;;;;;;10.60;1.92;;;;;;;;;;5010280;28;20049;-65
2022/06/13 14:24:22;;;;;;;9.95;2.40;;;;;;;;;;4999076;28;20058;-67
2022/06/13 14:26:53;;;;;;;9.70;2.30;;;;;;;;;;5008891;28;20042;-67
2022/06/13 14:29:25;;;;;;;13.10;2.58;;;;;;;;;;5009123;28;20428;-66
2022/06/13 14:31:57;;;;;;;10.45;2.40;;;;;;;;;;5009764;28;20463;-67
2022/06/13 14:37:27;;;;;;;8.45;2.55;;;;;;;;;;5009759;28;20493;-65
2022/06/13 14:39:55;;;;;;;7.15;1.77;;;;;;;;;;5008945;28;20482;-66
2022/06/13 14:42:32;;;;;;;10.35;2.10;;;;;;;;;;5010501;28;20104;-66
2022/06/13 14:45:16;;;;;;;10.27;2.00;;;;;;;;;;5009826;28;20038;-67
2022/06/13 14:47:45;;;;;;;8.07;2.10;;;;;;;;;;5008664;28;20108;-69
2022/06/13 14:50:11;;;;;;;6.53;1.95;;;;;;;;;;5008848;28;20069;-67
2022/06/13 14:52:37;;;;;;;;;;;;;;;;;;5009406;28;20423;-66
2022/06/13 14:55:03;;;;;;;10.70;2.22;;;;;;;;;;5010194;28;19921;-67
2022/06/13 14:57:29;;;;;;;9.98;2.25;;;;;;;;;;5008347;28;20121;-66
2022/06/13 15:00:09;;;;;;;7.93;1.95;;;;;;;;;;5009710;28;20057;-66
2022/06/13 15:02:59;;;;;;;9.15;2.20;;;;;;;;;;5009530;28;20435;-67
2022/06/13 15:05:31;;;;;;;8.57;2.03;;;;;;;;;;5009969;28;20125;-66
2022/06/13 15:08:00;;;;;;;9.48;2.13;;;;;;;;;;5010068;28;20107;-67
2022/06/13 15:10:29;;;;;;;9.10;2.08;;;;;;;;;;5009529;28;20049;-67
2022/06/13 15:12:58;;;;;;;8.95;2.10;;;;;;;;;;5008926;28;20069;-66
2022/06/13 15:15:31;;;;;;;13.75;2.10;;;;;;;;;;5009607;28;20450;-65
2022/06/13 15:18:01;;;;;;;8.25;1.88;;;;;;;;;;4990989;28;20439;-67
2022/06/13 15:20:30;;;;;;;8.63;2.00;;;;;;;;;;5007280;28;20072;-66
2022/06/13 15:22:59;;;;;;;8.48;1.88;;;;;;;;;;4991514;28;20098;-67